LiveATC.Net - Listen to live air traffic control over the Internet!

ICAO: KYIP  IATA: YIP   Airport: Willow Run Airport
City: Detroit   State/Province: Michigan
Country: United States   Continent: North America
KYIP METAR Weather: KYIP 241353Z AUTO 34012KT 10SM BKN032 BKN044 11/04 A3024 RMK AO2 SLP238 T01060044 $
KYIP Flight Activity (FlightAware)
KYIP Airport Info   (AirNav) (iFlightPlanner)
KYIP VFR Sectional Chart   (iFlightPlanner) 
KYIP IFR Low Chart   (iFlightPlanner) 
KYIP Gnd/Twr/App
Feed Status: UP   Listeners: 0
Listen right in your browser - requires Flash (in browser, requires Flash)
Click here to listen with your own player (launches your MP3 player)
KYIP Gnd/Twr/App Audio Archives
Detroit Approach/Departure118.950
Willow Run Ground121.750
Willow Run Tower125.275


Unauthorized use prohibited. See Terms of Service

Find LiveATC Audio Streams

Airport/ARTCC Code

(e.g., 124.400, 128.75)
Site-wide search

Browse LiveATC Feeds
LiveATC Coverage Map
Top 50 LiveATC Feeds
Bad Weather Areas

Offer a LiveATC Feed
Press Inquiries

LiveATC on iPhone
LiveATC on Android

Windows Phone
Windows 8/10

LiveATC Mobile
(Mobile browser)

ATC Audio Archives
Interesting Recordings

LiveATC Forums

Home Page
Make a Donation
LiveATC Store

Terms of Use
Privacy Policy

Canadian Air Freqs


FAA Airport Status
Nat'l Airspace Status
Arrival Demand Charts

Server Software By: